sensor_id;sensor_type;location;lat;lon;timestamp;P1;durP1;ratioP1;P2;durP2;ratioP2
15474;SDS011;7839;50.462;9.678;2024-01-06T00:01:21;2.50;;;1.10;;
15474;SDS011;7839;50.462;9.678;2024-01-06T00:08:01;2.03;;;0.90;;
15474;SDS011;7839;50.462;9.678;2024-01-06T00:14:41;2.97;;;1.00;;
15474;SDS011;7839;50.462;9.678;2024-01-06T00:21:23;3.00;;;0.97;;
15474;SDS011;7839;50.462;9.678;2024-01-06T00:28:04;0.70;;;0.70;;
15474;SDS011;7839;50.462;9.678;2024-01-06T00:34:44;1.03;;;0.93;;
15474;SDS011;7839;50.462;9.678;2024-01-06T00:41:24;1.47;;;1.10;;
15474;SDS011;7839;50.462;9.678;2024-01-06T00:48:04;2.33;;;1.13;;
15474;SDS011;7839;50.462;9.678;2024-01-06T00:54:45;2.30;;;1.30;;
15474;SDS011;7839;50.462;9.678;2024-01-06T01:01:26;1.83;;;1.03;;
15474;SDS011;7839;50.462;9.678;2024-01-06T01:08:06;1.53;;;0.97;;
15474;SDS011;7839;50.462;9.678;2024-01-06T01:14:46;0.60;;;0.60;;
15474;SDS011;7839;50.462;9.678;2024-01-06T01:21:27;1.17;;;0.83;;
15474;SDS011;7839;50.462;9.678;2024-01-06T01:28:07;0.80;;;0.60;;
15474;SDS011;7839;50.462;9.678;2024-01-06T01:34:47;1.00;;;0.80;;
15474;SDS011;7839;50.462;9.678;2024-01-06T01:41:27;0.70;;;0.70;;
15474;SDS011;7839;50.462;9.678;2024-01-06T01:48:08;0.73;;;0.60;;
15474;SDS011;7839;50.462;9.678;2024-01-06T01:54:48;1.47;;;0.77;;
15474;SDS011;7839;50.462;9.678;2024-01-06T02:01:29;0.80;;;0.80;;
15474;SDS011;7839;50.462;9.678;2024-01-06T02:08:09;1.07;;;0.90;;
15474;SDS011;7839;50.462;9.678;2024-01-06T02:14:49;1.37;;;0.50;;
15474;SDS011;7839;50.462;9.678;2024-01-06T02:21:29;1.50;;;0.63;;
15474;SDS011;7839;50.462;9.678;2024-01-06T02:28:11;1.40;;;0.80;;
15474;SDS011;7839;50.462;9.678;2024-01-06T02:34:51;2.07;;;0.90;;
15474;SDS011;7839;50.462;9.678;2024-01-06T02:41:31;0.77;;;0.73;;
15474;SDS011;7839;50.462;9.678;2024-01-06T02:48:12;1.57;;;0.80;;
15474;SDS011;7839;50.462;9.678;2024-01-06T02:54:52;1.03;;;0.60;;
15474;SDS011;7839;50.462;9.678;2024-01-06T03:01:32;1.47;;;0.83;;
15474;SDS011;7839;50.462;9.678;2024-01-06T03:08:13;1.27;;;0.77;;
15474;SDS011;7839;50.462;9.678;2024-01-06T03:14:53;0.90;;;0.90;;
15474;SDS011;7839;50.462;9.678;2024-01-06T03:21:33;1.20;;;0.63;;
15474;SDS011;7839;50.462;9.678;2024-01-06T03:28:13;0.70;;;0.70;;
15474;SDS011;7839;50.462;9.678;2024-01-06T03:34:53;0.90;;;0.70;;
15474;SDS011;7839;50.462;9.678;2024-01-06T03:41:34;0.70;;;0.70;;
15474;SDS011;7839;50.462;9.678;2024-01-06T03:48:14;1.70;;;0.90;;
15474;SDS011;7839;50.462;9.678;2024-01-06T03:54:54;1.17;;;0.83;;
15474;SDS011;7839;50.462;9.678;2024-01-06T04:01:34;1.40;;;0.83;;
15474;SDS011;7839;50.462;9.678;2024-01-06T04:08:16;1.23;;;0.90;;
15474;SDS011;7839;50.462;9.678;2024-01-06T04:14:57;1.13;;;1.03;;
15474;SDS011;7839;50.462;9.678;2024-01-06T04:21:38;1.10;;;0.70;;
15474;SDS011;7839;50.462;9.678;2024-01-06T04:28:19;1.43;;;0.83;;
15474;SDS011;7839;50.462;9.678;2024-01-06T04:34:59;0.70;;;0.70;;
15474;SDS011;7839;50.462;9.678;2024-01-06T04:41:39;1.83;;;1.10;;
15474;SDS011;7839;50.462;9.678;2024-01-06T04:48:20;2.43;;;1.20;;
15474;SDS011;7839;50.462;9.678;2024-01-06T04:55:00;1.10;;;1.00;;
15474;SDS011;7839;50.462;9.678;2024-01-06T05:01:41;1.20;;;0.73;;
15474;SDS011;7839;50.462;9.678;2024-01-06T05:08:21;0.97;;;0.70;;
15474;SDS011;7839;50.462;9.678;2024-01-06T05:15:02;0.97;;;0.90;;
15474;SDS011;7839;50.462;9.678;2024-01-06T05:21:42;0.70;;;0.63;;
15474;SDS011;7839;50.462;9.678;2024-01-06T05:28:23;1.90;;;0.77;;
15474;SDS011;7839;50.462;9.678;2024-01-06T05:35:03;0.90;;;0.67;;
15474;SDS011;7839;50.462;9.678;2024-01-06T05:41:43;1.17;;;0.90;;
15474;SDS011;7839;50.462;9.678;2024-01-06T05:48:23;0.90;;;0.90;;
15474;SDS011;7839;50.462;9.678;2024-01-06T05:55:04;2.10;;;1.00;;
15474;SDS011;7839;50.462;9.678;2024-01-06T06:01:44;1.60;;;0.73;;
15474;SDS011;7839;50.462;9.678;2024-01-06T06:08:24;1.73;;;0.97;;
15474;SDS011;7839;50.462;9.678;2024-01-06T06:15:05;2.03;;;1.00;;
15474;SDS011;7839;50.462;9.678;2024-01-06T06:21:46;1.10;;;0.80;;
15474;SDS011;7839;50.462;9.678;2024-01-06T06:28:26;1.13;;;0.90;;
15474;SDS011;7839;50.462;9.678;2024-01-06T06:35:06;1.13;;;0.73;;
15474;SDS011;7839;50.462;9.678;2024-01-06T06:41:47;2.00;;;0.67;;
15474;SDS011;7839;50.462;9.678;2024-01-06T06:48:27;0.97;;;0.70;;
15474;SDS011;7839;50.462;9.678;2024-01-06T06:55:07;1.70;;;0.80;;
15474;SDS011;7839;50.462;9.678;2024-01-06T07:01:48;0.50;;;0.50;;
15474;SDS011;7839;50.462;9.678;2024-01-06T07:08:28;0.80;;;0.53;;
15474;SDS011;7839;50.462;9.678;2024-01-06T07:15:08;0.57;;;0.50;;
15474;SDS011;7839;50.462;9.678;2024-01-06T07:21:51;1.00;;;0.90;;
15474;SDS011;7839;50.462;9.678;2024-01-06T07:28:31;1.53;;;0.97;;
15474;SDS011;7839;50.462;9.678;2024-01-06T07:35:11;0.87;;;0.77;;
15474;SDS011;7839;50.462;9.678;2024-01-06T07:41:52;0.60;;;0.60;;
15474;SDS011;7839;50.462;9.678;2024-01-06T07:48:32;0.50;;;0.47;;
15474;SDS011;7839;50.462;9.678;2024-01-06T07:55:12;0.67;;;0.67;;
15474;SDS011;7839;50.462;9.678;2024-01-06T08:01:53;1.80;;;0.87;;
15474;SDS011;7839;50.462;9.678;2024-01-06T08:08:33;0.63;;;0.63;;
15474;SDS011;7839;50.462;9.678;2024-01-06T08:15:13;0.70;;;0.70;;
15474;SDS011;7839;50.462;9.678;2024-01-06T08:21:53;1.17;;;0.90;;
15474;SDS011;7839;50.462;9.678;2024-01-06T08:28:33;0.80;;;0.80;;
15474;SDS011;7839;50.462;9.678;2024-01-06T08:35:14;0.50;;;0.50;;
15474;SDS011;7839;50.462;9.678;2024-01-06T08:41:56;1.03;;;0.60;;
15474;SDS011;7839;50.462;9.678;2024-01-06T08:48:37;0.80;;;0.80;;
15474;SDS011;7839;50.462;9.678;2024-01-06T08:55:17;0.97;;;0.87;;
15474;SDS011;7839;50.462;9.678;2024-01-06T09:01:57;0.53;;;0.53;;
15474;SDS011;7839;50.462;9.678;2024-01-06T09:08:37;0.83;;;0.40;;
15474;SDS011;7839;50.462;9.678;2024-01-06T09:15:18;0.50;;;0.50;;
15474;SDS011;7839;50.462;9.678;2024-01-06T09:21:58;1.90;;;0.60;;
15474;SDS011;7839;50.462;9.678;2024-01-06T09:28:38;0.67;;;0.50;;
15474;SDS011;7839;50.462;9.678;2024-01-06T09:35:19;0.60;;;0.60;;
15474;SDS011;7839;50.462;9.678;2024-01-06T09:42:00;0.60;;;0.60;;
15474;SDS011;7839;50.462;9.678;2024-01-06T09:48:41;1.07;;;0.43;;
15474;SDS011;7839;50.462;9.678;2024-01-06T09:55:25;0.73;;;0.73;;
15474;SDS011;7839;50.462;9.678;2024-01-06T10:02:06;0.57;;;0.53;;
15474;SDS011;7839;50.462;9.678;2024-01-06T10:08:50;1.17;;;0.70;;
15474;SDS011;7839;50.462;9.678;2024-01-06T10:15:30;0.63;;;0.60;;
15474;SDS011;7839;50.462;9.678;2024-01-06T10:22:11;0.50;;;0.50;;
15474;SDS011;7839;50.462;9.678;2024-01-06T10:28:51;0.57;;;0.50;;
15474;SDS011;7839;50.462;9.678;2024-01-06T10:35:31;0.97;;;0.63;;
15474;SDS011;7839;50.462;9.678;2024-01-06T10:42:11;0.77;;;0.77;;
15474;SDS011;7839;50.462;9.678;2024-01-06T10:48:53;0.40;;;0.40;;
15474;SDS011;7839;50.462;9.678;2024-01-06T10:55:35;1.17;;;0.83;;
15474;SDS011;7839;50.462;9.678;2024-01-06T11:02:16;1.03;;;0.60;;
15474;SDS011;7839;50.462;9.678;2024-01-06T11:09:11;1.33;;;0.60;;
15474;SDS011;7839;50.462;9.678;2024-01-06T11:15:53;0.60;;;0.40;;
15474;SDS011;7839;50.462;9.678;2024-01-06T11:22:33;0.50;;;0.50;;
15474;SDS011;7839;50.462;9.678;2024-01-06T11:29:16;0.83;;;0.50;;
15474;SDS011;7839;50.462;9.678;2024-01-06T11:35:56;0.30;;;0.30;;
15474;SDS011;7839;50.462;9.678;2024-01-06T11:42:44;0.93;;;0.70;;
15474;SDS011;7839;50.462;9.678;2024-01-06T11:49:26;1.53;;;0.80;;
15474;SDS011;7839;50.462;9.678;2024-01-06T11:56:07;2.20;;;0.70;;
15474;SDS011;7839;50.462;9.678;2024-01-06T12:02:47;0.50;;;0.50;;
15474;SDS011;7839;50.462;9.678;2024-01-06T12:09:27;0.57;;;0.50;;
15474;SDS011;7839;50.462;9.678;2024-01-06T12:16:08;0.73;;;0.50;;
15474;SDS011;7839;50.462;9.678;2024-01-06T12:22:52;0.80;;;0.60;;
15474;SDS011;7839;50.462;9.678;2024-01-06T12:29:33;0.37;;;0.37;;
15474;SDS011;7839;50.462;9.678;2024-01-06T12:36:13;1.33;;;0.63;;
15474;SDS011;7839;50.462;9.678;2024-01-06T12:42:53;0.97;;;0.70;;
15474;SDS011;7839;50.462;9.678;2024-01-06T12:49:33;0.40;;;0.40;;
15474;SDS011;7839;50.462;9.678;2024-01-06T12:56:13;0.43;;;0.43;;
15474;SDS011;7839;50.462;9.678;2024-01-06T13:02:54;0.33;;;0.33;;
15474;SDS011;7839;50.462;9.678;2024-01-06T13:09:34;0.40;;;0.40;;
15474;SDS011;7839;50.462;9.678;2024-01-06T13:16:15;0.57;;;0.57;;
15474;SDS011;7839;50.462;9.678;2024-01-06T13:22:55;0.50;;;0.50;;
15474;SDS011;7839;50.462;9.678;2024-01-06T13:29:35;1.13;;;0.60;;
15474;SDS011;7839;50.462;9.678;2024-01-06T13:36:15;0.40;;;0.40;;
15474;SDS011;7839;50.462;9.678;2024-01-06T13:42:57;0.40;;;0.40;;
15474;SDS011;7839;50.462;9.678;2024-01-06T13:49:38;0.50;;;0.50;;
15474;SDS011;7839;50.462;9.678;2024-01-06T13:56:18;0.47;;;0.47;;
15474;SDS011;7839;50.462;9.678;2024-01-06T14:02:58;0.50;;;0.50;;
15474;SDS011;7839;50.462;9.678;2024-01-06T14:09:39;0.50;;;0.50;;
15474;SDS011;7839;50.462;9.678;2024-01-06T14:16:19;0.60;;;0.60;;
15474;SDS011;7839;50.462;9.678;2024-01-06T14:23:00;0.23;;;0.23;;
15474;SDS011;7839;50.462;9.678;2024-01-06T14:29:40;0.50;;;0.50;;
15474;SDS011;7839;50.462;9.678;2024-01-06T14:36:21;0.47;;;0.47;;
15474;SDS011;7839;50.462;9.678;2024-01-06T14:43:01;0.60;;;0.60;;
15474;SDS011;7839;50.462;9.678;2024-01-06T14:49:42;0.40;;;0.40;;
15474;SDS011;7839;50.462;9.678;2024-01-06T14:56:22;0.47;;;0.47;;
15474;SDS011;7839;50.462;9.678;2024-01-06T15:03:03;0.30;;;0.30;;
15474;SDS011;7839;50.462;9.678;2024-01-06T15:09:43;0.60;;;0.60;;
15474;SDS011;7839;50.462;9.678;2024-01-06T15:16:24;0.50;;;0.33;;
15474;SDS011;7839;50.462;9.678;2024-01-06T15:23:04;0.40;;;0.30;;
15474;SDS011;7839;50.462;9.678;2024-01-06T15:29:44;0.63;;;0.30;;
15474;SDS011;7839;50.462;9.678;2024-01-06T15:36:25;0.30;;;0.30;;
15474;SDS011;7839;50.462;9.678;2024-01-06T15:43:06;0.40;;;0.40;;
15474;SDS011;7839;50.462;9.678;2024-01-06T15:49:46;0.30;;;0.30;;
15474;SDS011;7839;50.462;9.678;2024-01-06T15:56:26;0.40;;;0.37;;
15474;SDS011;7839;50.462;9.678;2024-01-06T16:03:06;0.57;;;0.50;;
15474;SDS011;7839;50.462;9.678;2024-01-06T16:09:47;0.37;;;0.23;;
15474;SDS011;7839;50.462;9.678;2024-01-06T16:16:27;0.30;;;0.30;;
15474;SDS011;7839;50.462;9.678;2024-01-06T16:23:08;0.40;;;0.40;;
15474;SDS011;7839;50.462;9.678;2024-01-06T16:29:53;0.30;;;0.30;;
15474;SDS011;7839;50.462;9.678;2024-01-06T16:36:33;0.30;;;0.30;;
15474;SDS011;7839;50.462;9.678;2024-01-06T16:43:14;4.27;;;3.00;;
15474;SDS011;7839;50.462;9.678;2024-01-06T16:49:54;5.17;;;3.50;;
15474;SDS011;7839;50.462;9.678;2024-01-06T16:56:34;6.57;;;4.87;;
15474;SDS011;7839;50.462;9.678;2024-01-06T17:03:14;6.90;;;4.80;;
15474;SDS011;7839;50.462;9.678;2024-01-06T17:09:54;2.37;;;1.90;;
15474;SDS011;7839;50.462;9.678;2024-01-06T17:16:38;1.50;;;1.40;;
15474;SDS011;7839;50.462;9.678;2024-01-06T17:23:19;1.43;;;1.10;;
15474;SDS011;7839;50.462;9.678;2024-01-06T17:29:59;1.37;;;1.20;;
15474;SDS011;7839;50.462;9.678;2024-01-06T17:36:39;1.27;;;1.07;;
15474;SDS011;7839;50.462;9.678;2024-01-06T17:43:19;1.53;;;1.10;;
15474;SDS011;7839;50.462;9.678;2024-01-06T17:49:59;1.20;;;1.10;;
15474;SDS011;7839;50.462;9.678;2024-01-06T17:56:40;1.20;;;0.87;;
15474;SDS011;7839;50.462;9.678;2024-01-06T18:03:20;0.90;;;0.90;;
15474;SDS011;7839;50.462;9.678;2024-01-06T18:10:00;1.50;;;0.90;;
15474;SDS011;7839;50.462;9.678;2024-01-06T18:16:40;3.90;;;2.67;;
15474;SDS011;7839;50.462;9.678;2024-01-06T18:23:20;0.90;;;0.90;;
15474;SDS011;7839;50.462;9.678;2024-01-06T18:30:01;1.20;;;0.87;;
15474;SDS011;7839;50.462;9.678;2024-01-06T18:36:41;0.80;;;0.80;;
15474;SDS011;7839;50.462;9.678;2024-01-06T18:43:21;3.77;;;3.10;;
15474;SDS011;7839;50.462;9.678;2024-01-06T18:50:01;3.40;;;3.00;;
15474;SDS011;7839;50.462;9.678;2024-01-06T18:56:43;2.10;;;1.07;;
15474;SDS011;7839;50.462;9.678;2024-01-06T19:03:23;1.07;;;1.00;;
15474;SDS011;7839;50.462;9.678;2024-01-06T19:10:03;1.33;;;1.27;;
15474;SDS011;7839;50.462;9.678;2024-01-06T19:16:44;1.30;;;1.20;;
15474;SDS011;7839;50.462;9.678;2024-01-06T19:23:25;3.57;;;2.97;;
15474;SDS011;7839;50.462;9.678;2024-01-06T19:30:06;1.63;;;1.53;;
15474;SDS011;7839;50.462;9.678;2024-01-06T19:36:46;14.03;;;8.27;;
15474;SDS011;7839;50.462;9.678;2024-01-06T19:43:27;1.10;;;1.00;;
15474;SDS011;7839;50.462;9.678;2024-01-06T19:50:08;1.20;;;1.10;;
15474;SDS011;7839;50.462;9.678;2024-01-06T19:56:48;1.50;;;1.07;;
15474;SDS011;7839;50.462;9.678;2024-01-06T20:03:29;1.10;;;1.00;;
15474;SDS011;7839;50.462;9.678;2024-01-06T20:10:09;2.37;;;2.17;;
15474;SDS011;7839;50.462;9.678;2024-01-06T20:16:51;4.37;;;4.07;;
15474;SDS011;7839;50.462;9.678;2024-01-06T20:23:32;1.23;;;0.90;;
15474;SDS011;7839;50.462;9.678;2024-01-06T20:30:13;1.07;;;0.90;;
15474;SDS011;7839;50.462;9.678;2024-01-06T20:36:53;2.27;;;2.17;;
15474;SDS011;7839;50.462;9.678;2024-01-06T20:43:33;0.80;;;0.80;;
15474;SDS011;7839;50.462;9.678;2024-01-06T20:50:13;0.87;;;0.70;;
15474;SDS011;7839;50.462;9.678;2024-01-06T20:56:54;0.60;;;0.60;;
15474;SDS011;7839;50.462;9.678;2024-01-06T21:03:34;1.10;;;1.10;;
15474;SDS011;7839;50.462;9.678;2024-01-06T21:10:14;0.80;;;0.80;;
15474;SDS011;7839;50.462;9.678;2024-01-06T21:16:54;2.70;;;2.47;;
15474;SDS011;7839;50.462;9.678;2024-01-06T21:23:35;3.30;;;3.00;;
15474;SDS011;7839;50.462;9.678;2024-01-06T21:30:15;5.70;;;3.00;;
15474;SDS011;7839;50.462;9.678;2024-01-06T21:36:55;2.80;;;2.60;;
15474;SDS011;7839;50.462;9.678;2024-01-06T21:43:35;3.10;;;2.80;;
15474;SDS011;7839;50.462;9.678;2024-01-06T21:50:15;4.57;;;4.03;;
15474;SDS011;7839;50.462;9.678;2024-01-06T21:56:56;3.17;;;2.97;;
15474;SDS011;7839;50.462;9.678;2024-01-06T22:03:36;2.40;;;2.17;;
15474;SDS011;7839;50.462;9.678;2024-01-06T22:10:16;4.03;;;2.43;;
15474;SDS011;7839;50.462;9.678;2024-01-06T22:16:56;2.90;;;2.10;;
15474;SDS011;7839;50.462;9.678;2024-01-06T22:23:36;2.50;;;2.30;;
15474;SDS011;7839;50.462;9.678;2024-01-06T22:30:17;4.27;;;3.10;;
15474;SDS011;7839;50.462;9.678;2024-01-06T22:36:57;3.20;;;2.80;;
15474;SDS011;7839;50.462;9.678;2024-01-06T22:43:38;2.50;;;2.30;;
15474;SDS011;7839;50.462;9.678;2024-01-06T22:50:19;3.57;;;2.40;;
15474;SDS011;7839;50.462;9.678;2024-01-06T22:56:59;2.90;;;2.60;;
15474;SDS011;7839;50.462;9.678;2024-01-06T23:03:39;2.70;;;2.50;;
15474;SDS011;7839;50.462;9.678;2024-01-06T23:10:19;2.77;;;2.57;;
15474;SDS011;7839;50.462;9.678;2024-01-06T23:17:00;4.00;;;3.50;;
15474;SDS011;7839;50.462;9.678;2024-01-06T23:23:40;5.40;;;3.00;;
15474;SDS011;7839;50.462;9.678;2024-01-06T23:30:22;4.30;;;3.00;;
15474;SDS011;7839;50.462;9.678;2024-01-06T23:37:02;3.60;;;3.00;;
15474;SDS011;7839;50.462;9.678;2024-01-06T23:43:43;4.33;;;3.53;;
15474;SDS011;7839;50.462;9.678;2024-01-06T23:50:23;3.83;;;3.50;;
15474;SDS011;7839;50.462;9.678;2024-01-06T23:57:04;7.93;;;4.87;;
